createdAt,value
2018-07-22T00:01:13.161Z,32.27
2018-07-22T00:06:15.305Z,35.83
2018-07-22T00:11:17.477Z,53.93
2018-07-22T00:16:19.605Z,42.10
2018-07-22T00:21:21.813Z,46.07
2018-07-22T00:26:24.106Z,66.27
2018-07-22T00:31:26.289Z,88.33
2018-07-22T00:36:28.434Z,67.33
2018-07-22T00:41:30.558Z,36.30
2018-07-22T00:46:32.705Z,34.87
2018-07-22T00:51:34.858Z,29.90
2018-07-22T00:56:37.156Z,24.97
2018-07-22T01:01:39.293Z,25.13
2018-07-22T01:06:41.442Z,26.77
2018-07-22T01:11:43.591Z,28.50
2018-07-22T01:16:45.747Z,22.40
2018-07-22T01:21:48.009Z,24.87
2018-07-22T01:26:50.169Z,24.27
2018-07-22T01:31:52.338Z,27.40
2018-07-22T01:36:54.514Z,27.10
2018-07-22T01:41:56.674Z,23.13
2018-07-22T01:46:58.833Z,24.93
2018-07-22T01:52:01.151Z,28.53
2018-07-22T01:57:03.342Z,22.17
2018-07-22T02:02:05.926Z,22.97
2018-07-22T02:07:08.218Z,19.40
2018-07-22T02:12:10.373Z,21.70
2018-07-22T02:17:12.542Z,24.43
2018-07-22T02:22:14.718Z,22.80
2018-07-22T02:27:16.865Z,18.87
2018-07-22T02:32:19.264Z,23.37
2018-07-22T02:37:21.459Z,24.07
2018-07-22T02:42:23.626Z,29.67
2018-07-22T02:47:25.797Z,28.10
2018-07-22T02:52:27.981Z,35.43
2018-07-22T02:57:30.154Z,27.03
2018-07-22T03:02:32.314Z,25.00
2018-07-22T03:07:34.477Z,29.50
2018-07-22T03:12:36.634Z,32.57
2018-07-22T03:17:38.814Z,26.90
2018-07-22T03:22:40.962Z,28.20
2018-07-22T03:27:43.112Z,31.40
2018-07-22T03:32:45.283Z,24.50
2018-07-22T03:37:47.461Z,28.87
2018-07-22T03:42:49.857Z,25.93
2018-07-22T03:47:52.031Z,27.20
2018-07-22T03:52:54.201Z,29.67
2018-07-22T03:57:56.370Z,29.80
2018-07-22T04:02:58.524Z,28.53
2018-07-22T04:08:00.685Z,23.70
2018-07-22T04:13:02.866Z,23.40
2018-07-22T04:18:05.061Z,25.73
2018-07-22T04:23:07.244Z,26.67
2018-07-22T04:28:09.410Z,26.53
2018-07-22T04:33:11.573Z,29.47
2018-07-22T04:38:13.705Z,31.50
2018-07-22T04:43:15.893Z,25.23
2018-07-22T04:48:18.054Z,34.20
2018-07-22T04:53:20.202Z,28.00
2018-07-22T04:58:22.351Z,26.67
2018-07-22T05:03:24.548Z,26.00
2018-07-22T05:08:26.713Z,24.37
2018-07-22T05:13:28.897Z,24.90
2018-07-22T05:18:31.056Z,30.40
2018-07-22T05:23:33.214Z,21.43
2018-07-22T05:28:35.350Z,22.63
2018-07-22T05:33:37.481Z,22.80
2018-07-22T05:38:39.636Z,21.67
2018-07-22T05:43:43.097Z,22.80
2018-07-22T05:48:45.224Z,20.00
2018-07-22T05:53:47.365Z,17.53
2018-07-22T05:58:49.615Z,18.10
2018-07-22T06:03:51.757Z,21.77
2018-07-22T06:08:53.945Z,20.20
2018-07-22T06:13:56.195Z,17.87
2018-07-22T06:18:58.363Z,21.10
2018-07-22T06:24:00.565Z,21.37
2018-07-22T06:29:02.766Z,21.77
2018-07-22T06:34:05.430Z,21.50
2018-07-22T06:39:09.189Z,22.33
2018-07-22T06:44:11.374Z,26.87
2018-07-22T06:49:13.560Z,21.90
2018-07-22T06:54:15.761Z,21.70
2018-07-22T06:59:17.906Z,22.30
2018-07-22T07:04:20.065Z,23.67
2018-07-22T07:09:22.225Z,28.57
2018-07-22T07:14:24.425Z,24.70
2018-07-22T07:19:26.594Z,30.53
2018-07-22T07:24:28.764Z,27.53
2018-07-22T07:29:31.005Z,25.63
2018-07-22T07:34:33.197Z,30.73
2018-07-22T07:39:35.350Z,28.67
2018-07-22T07:44:37.513Z,23.20
2018-07-22T07:49:39.686Z,21.90
2018-07-22T07:54:41.838Z,21.47
2018-07-22T07:59:44.006Z,22.23
2018-07-22T08:04:46.145Z,17.00
2018-07-22T08:09:48.336Z,16.60
2018-07-22T08:14:50.521Z,33.63
2018-07-22T08:19:52.669Z,20.20
2018-07-22T08:24:54.863Z,20.30
2018-07-22T08:29:56.993Z,17.40
2018-07-22T08:34:59.137Z,21.07
2018-07-22T08:40:01.286Z,19.30
2018-07-22T08:45:04.106Z,18.00
2018-07-22T08:50:06.265Z,20.50
2018-07-22T08:55:08.450Z,26.50
2018-07-22T09:00:10.605Z,26.57
2018-07-22T09:05:12.765Z,20.20
2018-07-22T09:10:14.896Z,25.27
2018-07-22T09:15:17.029Z,24.27
2018-07-22T09:20:19.178Z,21.00
2018-07-22T09:25:21.312Z,19.67
2018-07-22T09:30:23.478Z,25.00
2018-07-22T09:35:25.606Z,19.80
2018-07-22T09:40:27.757Z,16.07
2018-07-22T09:45:29.917Z,20.00
2018-07-22T09:50:32.065Z,23.23
2018-07-22T09:55:34.237Z,24.20
2018-07-22T10:00:42.074Z,22.53
2018-07-22T10:05:44.213Z,23.90
2018-07-22T10:10:46.407Z,23.63
2018-07-22T10:15:48.638Z,24.60
2018-07-22T10:20:50.801Z,20.20
2018-07-22T10:25:52.989Z,22.93
2018-07-22T10:30:55.145Z,23.80
2018-07-22T10:35:57.398Z,23.13
2018-07-22T10:40:59.496Z,20.70
2018-07-22T10:46:01.681Z,19.10
2018-07-22T10:51:03.971Z,20.70
2018-07-22T10:56:06.049Z,28.50
2018-07-22T11:01:08.218Z,19.77
2018-07-22T11:06:10.385Z,20.63
2018-07-22T11:11:12.539Z,21.67
2018-07-22T11:16:14.693Z,14.77
2018-07-22T11:21:16.974Z,16.60
2018-07-22T11:26:19.005Z,20.30
2018-07-22T11:31:21.193Z,21.33
2018-07-22T11:36:23.345Z,15.70
2018-07-22T11:41:25.506Z,16.00
2018-07-22T11:46:27.649Z,22.47
2018-07-22T11:51:29.882Z,17.60
2018-07-22T11:56:32.033Z,16.50
2018-07-22T12:01:34.343Z,19.93
2018-07-22T12:06:36.434Z,15.73
2018-07-22T12:11:38.618Z,15.73
2018-07-22T12:16:40.781Z,16.43
2018-07-22T12:21:42.925Z,16.47
2018-07-22T12:26:45.100Z,16.50
2018-07-22T12:31:47.262Z,14.30
2018-07-22T12:36:49.422Z,16.30
2018-07-22T12:41:51.593Z,13.87
2018-07-22T12:46:53.731Z,14.80
2018-07-22T12:51:55.877Z,11.97
2018-07-22T12:56:58.022Z,14.47
2018-07-22T13:02:00.193Z,14.47
2018-07-22T13:07:02.354Z,14.43
2018-07-22T13:12:04.533Z,16.70
2018-07-22T13:17:06.665Z,22.30
2018-07-22T13:22:08.795Z,10.40
2018-07-22T13:27:11.125Z,18.17
2018-07-22T13:32:13.247Z,14.80
2018-07-22T13:37:15.397Z,18.53
2018-07-22T13:42:17.873Z,22.00
2018-07-22T13:47:20.014Z,21.40
2018-07-22T13:52:22.163Z,29.53
2018-07-22T13:57:24.302Z,19.30
2018-07-22T14:02:26.457Z,25.87
2018-07-22T14:07:28.602Z,20.37
2018-07-22T14:12:30.737Z,17.13
2018-07-22T14:17:32.889Z,18.03
2018-07-22T14:22:35.013Z,29.00
2018-07-22T14:27:37.173Z,27.13
2018-07-22T14:32:39.297Z,28.77
2018-07-22T14:37:41.453Z,25.60
2018-07-22T14:42:45.181Z,23.47
2018-07-22T14:47:47.309Z,27.57
2018-07-22T14:52:49.425Z,20.40
2018-07-22T14:57:51.553Z,22.70
2018-07-22T15:02:53.689Z,17.93
2018-07-22T15:07:55.844Z,22.63
2018-07-22T15:12:58.008Z,20.03
2018-07-22T15:18:00.193Z,24.40
2018-07-22T15:23:02.333Z,21.37
2018-07-22T15:28:04.496Z,20.37
2018-07-22T15:33:06.630Z,26.07
2018-07-22T15:38:08.789Z,19.13
2018-07-22T15:43:10.963Z,18.53
2018-07-22T15:48:13.086Z,26.03
2018-07-22T15:53:15.216Z,20.80
2018-07-22T15:58:17.616Z,18.70
2018-07-22T16:03:19.790Z,22.50
2018-07-22T16:08:21.938Z,20.60
2018-07-22T16:13:24.127Z,24.90
2018-07-22T16:18:26.324Z,24.70
2018-07-22T16:23:28.572Z,25.33
2018-07-22T16:28:30.749Z,23.37
2018-07-22T16:33:32.941Z,25.03
2018-07-22T16:38:35.088Z,25.73
2018-07-22T16:43:37.245Z,22.07
2018-07-22T16:48:39.461Z,25.87
2018-07-22T16:53:41.645Z,31.30
2018-07-22T16:58:43.779Z,29.90
2018-07-22T17:03:45.921Z,23.33
2018-07-22T17:08:48.082Z,21.13
2018-07-22T17:13:50.253Z,18.03
2018-07-22T17:18:52.426Z,14.53
2018-07-22T17:23:54.749Z,17.30
2018-07-22T17:28:56.908Z,14.40
2018-07-22T17:33:59.086Z,18.00
2018-07-22T17:39:01.295Z,16.97
2018-07-22T17:44:03.489Z,19.47
2018-07-22T17:49:05.649Z,20.40
2018-07-22T17:54:07.877Z,18.77
2018-07-22T17:59:10.069Z,21.53
2018-07-22T18:04:12.189Z,15.03
2018-07-22T18:09:14.443Z,26.60
2018-07-22T18:14:16.672Z,17.60
2018-07-22T18:19:18.871Z,16.73
2018-07-22T18:24:21.014Z,16.70
2018-07-22T18:29:23.259Z,14.70
2018-07-22T18:34:25.414Z,18.23
2018-07-22T18:39:27.550Z,19.83
2018-07-22T18:44:29.687Z,16.03
2018-07-22T18:49:31.806Z,20.63
2018-07-22T18:54:34.309Z,21.83
2018-07-22T18:59:36.568Z,26.67
2018-07-22T19:04:38.681Z,16.93
2018-07-22T19:09:40.894Z,21.03
2018-07-22T19:14:43.029Z,23.57
2018-07-22T19:19:45.168Z,18.73
2018-07-22T19:24:47.350Z,19.60
2018-07-22T19:29:49.455Z,21.07
2018-07-22T19:34:51.597Z,17.80
2018-07-22T19:39:53.729Z,25.20
2018-07-22T19:44:55.858Z,20.50
2018-07-22T19:49:57.977Z,43.63
2018-07-22T19:55:00.323Z,23.27
2018-07-22T20:00:02.538Z,25.10
2018-07-22T20:05:04.803Z,21.57
2018-07-22T20:10:06.929Z,21.40
2018-07-22T20:15:09.077Z,20.23
2018-07-22T20:20:12.278Z,25.00
2018-07-22T20:25:14.441Z,21.33
2018-07-22T20:30:16.585Z,24.43
2018-07-22T20:35:18.740Z,23.50
2018-07-22T20:40:20.902Z,18.83
2018-07-22T20:45:23.063Z,21.20
2018-07-22T20:50:25.288Z,19.37
2018-07-22T20:55:27.469Z,19.37
2018-07-22T21:00:29.625Z,18.73
2018-07-22T21:05:32.854Z,20.43
2018-07-22T21:10:35.014Z,19.60
2018-07-22T21:15:37.170Z,18.60
2018-07-22T21:20:39.344Z,23.13
2018-07-22T21:25:41.545Z,21.43
2018-07-22T21:30:43.701Z,22.97
2018-07-22T21:35:45.885Z,17.47
2018-07-22T21:40:48.046Z,19.90
2018-07-22T21:45:50.197Z,16.73
2018-07-22T21:50:52.381Z,19.03
2018-07-22T21:55:54.517Z,16.53
2018-07-22T22:00:56.702Z,17.83
2018-07-22T22:05:58.863Z,20.17
2018-07-22T22:11:01.042Z,18.70
2018-07-22T22:16:03.203Z,18.37
2018-07-22T22:21:05.818Z,19.83
2018-07-22T22:26:07.963Z,21.03
2018-07-22T22:31:10.118Z,17.47
2018-07-22T22:36:12.297Z,20.23
2018-07-22T22:41:14.474Z,21.13
2018-07-22T22:46:16.654Z,18.03
2018-07-22T22:51:18.845Z,20.63
2018-07-22T22:56:21.013Z,22.70
2018-07-22T23:01:23.173Z,21.30
2018-07-22T23:06:25.501Z,22.67
2018-07-22T23:11:27.670Z,19.37
2018-07-22T23:16:29.829Z,18.27
2018-07-22T23:21:32.041Z,20.53
2018-07-22T23:26:34.201Z,20.40
2018-07-22T23:31:36.360Z,23.00
2018-07-22T23:36:38.504Z,23.43
2018-07-22T23:41:40.663Z,24.60
2018-07-22T23:46:42.816Z,23.63
2018-07-22T23:51:44.989Z,19.93
2018-07-22T23:56:47.137Z,23.70
